createdAt,value
2023-09-16T00:00:04.317Z,101119.34
2023-09-16T00:02:31.263Z,101133.69
2023-09-16T00:05:02.949Z,101130.31
2023-09-16T00:07:34.245Z,101133.66
2023-09-16T00:10:01.115Z,101150.03
2023-09-16T00:12:30.818Z,101154.38
2023-09-16T00:14:57.922Z,101152.69
2023-09-16T00:17:30.236Z,101149.53
2023-09-16T00:20:03.417Z,101142.19
2023-09-16T00:22:30.319Z,101145.38
2023-09-16T00:24:57.225Z,101150.38
2023-09-16T00:27:32.373Z,101138.47
2023-09-16T00:29:59.342Z,101155.38
2023-09-16T00:32:31.032Z,101164.16
2023-09-16T00:35:06.393Z,101149.31
2023-09-16T00:37:33.837Z,101167.72
2023-09-16T00:40:00.982Z,101172.34
2023-09-16T00:42:27.903Z,101167.72
2023-09-16T00:44:54.788Z,101169.63
2023-09-16T00:47:30.177Z,101174.63
2023-09-16T00:49:57.777Z,101171.50
2023-09-16T00:52:33.998Z,101167.50
2023-09-16T00:55:00.986Z,101167.72
2023-09-16T00:57:31.589Z,101148.09
2023-09-16T01:00:00.031Z,101160.78
2023-09-16T01:02:33.372Z,101157.31
2023-09-16T01:05:00.517Z,101167.84
2023-09-16T01:07:31.915Z,101167.78
2023-09-16T01:09:58.916Z,101170.06
2023-09-16T01:12:29.361Z,101165.19
2023-09-16T01:15:00.093Z,101163.03
2023-09-16T01:17:34.581Z,101164.66
2023-09-16T01:20:12.409Z,101158.16
2023-09-16T01:22:41.804Z,101156.47
2023-09-16T01:25:12.275Z,101155.38
2023-09-16T01:27:47.800Z,101149.22
2023-09-16T01:30:14.878Z,101149.13
2023-09-16T01:32:55.499Z,101159.69
2023-09-16T01:35:29.862Z,101161.31
2023-09-16T01:38:02.858Z,101169.75
2023-09-16T01:40:32.535Z,101172.19
2023-09-16T01:43:00.517Z,101169.88
2023-09-16T01:45:49.449Z,101162.81
2023-09-16T01:48:16.476Z,101151.34
2023-09-16T01:50:46.880Z,101152.75
2023-09-16T01:53:17.626Z,101154.84
2023-09-16T01:55:44.439Z,101144.34
2023-09-16T01:58:13.792Z,101147.41
2023-09-16T02:03:18.347Z,101134.19
2023-09-16T02:05:48.195Z,101151.00
2023-09-16T02:08:14.964Z,101158.91
2023-09-16T02:10:50.704Z,101165.13
2023-09-16T02:13:17.547Z,101159.84
2023-09-16T02:15:44.400Z,101161.25
2023-09-16T02:18:11.356Z,101167.53
2023-09-16T02:20:39.411Z,101182.22
2023-09-16T02:23:06.218Z,101186.78
2023-09-16T02:25:37.744Z,101186.34
2023-09-16T02:28:11.717Z,101184.06
2023-09-16T02:30:40.852Z,101181.34
2023-09-16T02:33:07.709Z,101189.34
2023-09-16T02:35:34.506Z,101190.38
2023-09-16T02:38:09.267Z,101173.28
2023-09-16T02:40:50.003Z,101185.13
2023-09-16T02:43:16.804Z,101178.91
2023-09-16T02:45:43.761Z,101178.53
2023-09-16T02:48:13.432Z,101177.69
2023-09-16T02:50:41.542Z,101174.78
2023-09-16T02:53:08.377Z,101182.78
2023-09-16T02:55:38.787Z,101178.34
2023-09-16T02:58:13.369Z,101157.41
2023-09-16T03:00:42.476Z,101170.00
2023-09-16T03:03:09.396Z,101175.63
2023-09-16T03:05:38.389Z,101168.88
2023-09-16T03:08:08.024Z,101158.16
2023-09-16T03:10:37.767Z,101163.41
2023-09-16T03:13:04.834Z,101147.81
2023-09-16T03:15:31.749Z,101154.09
2023-09-16T03:18:08.581Z,101149.06
2023-09-16T03:20:36.595Z,101157.88
2023-09-16T03:23:10.461Z,101169.78
2023-09-16T03:25:37.305Z,101166.72
2023-09-16T03:28:07.326Z,101155.81
2023-09-16T03:30:35.291Z,101132.63
2023-09-16T03:33:04.666Z,101149.53
2023-09-16T03:35:32.330Z,101155.25
2023-09-16T03:38:06.132Z,101157.31
2023-09-16T03:40:37.924Z,101141.38
2023-09-16T03:43:11.791Z,101164.06
2023-09-16T03:45:39.616Z,101162.19
2023-09-16T03:48:11.514Z,101157.13
2023-09-16T03:50:41.464Z,101158.34
2023-09-16T03:53:19.404Z,101160.03
2023-09-16T03:55:48.180Z,101164.06
2023-09-16T03:58:21.935Z,101138.16
2023-09-16T04:00:54.020Z,101168.50
2023-09-16T04:03:21.577Z,101172.91
2023-09-16T04:05:55.172Z,101160.59
2023-09-16T04:08:40.557Z,101167.63
2023-09-16T04:11:08.697Z,101164.38
2023-09-16T04:13:35.647Z,101170.19
2023-09-16T04:16:02.952Z,101176.84
2023-09-16T04:18:29.915Z,101162.84
2023-09-16T04:20:56.939Z,101180.16
2023-09-16T04:23:24.595Z,101178.09
2023-09-16T04:25:58.703Z,101176.38
2023-09-16T04:28:26.331Z,101179.41
2023-09-16T04:30:54.086Z,101176.84
2023-09-16T04:33:29.706Z,101176.03
2023-09-16T04:36:05.600Z,101156.00
2023-09-16T04:38:33.576Z,101177.34
2023-09-16T04:41:10.086Z,101180.72
2023-09-16T04:43:42.006Z,101165.47
2023-09-16T04:46:08.933Z,101176.94
2023-09-16T04:48:41.193Z,101181.72
2023-09-16T04:51:08.026Z,101183.22
2023-09-16T04:53:34.843Z,101181.38
2023-09-16T04:56:10.959Z,101178.66
2023-09-16T04:58:39.624Z,101176.56
2023-09-16T05:01:09.451Z,101176.84
2023-09-16T05:03:37.147Z,101172.06
2023-09-16T05:06:06.315Z,101168.78
2023-09-16T05:08:34.809Z,101170.75
2023-09-16T05:11:01.616Z,101168.47
2023-09-16T05:13:28.421Z,101174.84
2023-09-16T05:15:55.345Z,101181.22
2023-09-16T05:18:22.914Z,101167.22
2023-09-16T05:20:57.597Z,101175.31
2023-09-16T05:23:24.955Z,101175.28
2023-09-16T05:25:51.973Z,101176.78
2023-09-16T05:28:19.219Z,101181.00
2023-09-16T05:30:46.284Z,101175.25
2023-09-16T05:33:13.233Z,101182.69
2023-09-16T05:35:41.247Z,101179.31
2023-09-16T05:38:12.307Z,101183.66
2023-09-16T05:40:39.109Z,101181.78
2023-09-16T05:43:08.812Z,101180.66
2023-09-16T05:45:41.668Z,101193.13
2023-09-16T05:48:11.909Z,101181.59
2023-09-16T05:50:38.755Z,101177.47
2023-09-16T05:53:08.731Z,101150.19
2023-09-16T05:55:39.770Z,101176.03
2023-09-16T05:58:06.735Z,101174.69
2023-09-16T06:00:34.021Z,101170.94
2023-09-16T06:03:05.020Z,101180.25
2023-09-16T06:05:31.959Z,101178.09
2023-09-16T06:08:00.489Z,101180.72
2023-09-16T06:10:28.818Z,101181.81
2023-09-16T06:12:55.854Z,101176.19
2023-09-16T06:15:22.835Z,101178.84
2023-09-16T06:17:49.667Z,101180.66
2023-09-16T06:20:16.568Z,101183.47
2023-09-16T06:22:43.369Z,101187.38
2023-09-16T06:25:10.466Z,101179.75
2023-09-16T06:27:37.870Z,101188.88
2023-09-16T06:30:08.758Z,101177.41
2023-09-16T06:32:35.865Z,101185.13
2023-09-16T06:35:02.683Z,101182.88
2023-09-16T06:37:30.614Z,101191.59
2023-09-16T06:40:01.023Z,101182.94
2023-09-16T06:42:27.849Z,101189.63
2023-09-16T06:44:57.581Z,101191.44
2023-09-16T06:47:27.668Z,101194.22
2023-09-16T06:49:58.355Z,101192.31
2023-09-16T06:52:27.833Z,101190.72
2023-09-16T06:54:59.437Z,101195.44
2023-09-16T06:57:26.520Z,101190.56
2023-09-16T06:59:53.423Z,101190.16
2023-09-16T07:02:20.278Z,101184.50
2023-09-16T07:04:47.079Z,101182.81
2023-09-16T07:07:14.333Z,101181.34
2023-09-16T07:09:41.259Z,101182.41
2023-09-16T07:12:08.390Z,101188.50
2023-09-16T07:14:39.232Z,101191.47
2023-09-16T07:17:08.321Z,101192.13
2023-09-16T07:19:35.232Z,101207.66
2023-09-16T07:22:02.877Z,101207.63
2023-09-16T07:24:30.005Z,101204.25
2023-09-16T07:26:57.236Z,101205.09
2023-09-16T07:29:24.811Z,101212.22
2023-09-16T07:31:51.725Z,101213.47
2023-09-16T07:34:18.578Z,101208.44
2023-09-16T07:36:45.503Z,101217.50
2023-09-16T07:39:17.723Z,101227.63
2023-09-16T07:41:48.013Z,101231.22
2023-09-16T07:44:14.925Z,101240.50
2023-09-16T07:46:41.772Z,101237.78
2023-09-16T07:49:08.695Z,101232.94
2023-09-16T07:51:35.539Z,101239.69
2023-09-16T07:54:02.507Z,101230.00
2023-09-16T07:56:30.616Z,101232.56
2023-09-16T07:58:58.970Z,101239.09
2023-09-16T08:01:25.919Z,101224.13
2023-09-16T08:03:52.977Z,101227.50
2023-09-16T08:06:21.722Z,101236.78
2023-09-16T08:08:48.794Z,101228.34
2023-09-16T08:11:16.104Z,101238.06
2023-09-16T08:13:45.226Z,101236.78
2023-09-16T08:16:15.855Z,101234.69
2023-09-16T08:18:42.829Z,101237.84
2023-09-16T08:21:11.151Z,101232.97
2023-09-16T08:23:38.162Z,101238.47
2023-09-16T08:26:05.260Z,101245.41
2023-09-16T08:28:32.259Z,101242.47
2023-09-16T08:31:07.945Z,101239.72
2023-09-16T08:33:42.817Z,101248.16
2023-09-16T08:36:15.495Z,101256.59
2023-09-16T08:38:51.085Z,101249.41
2023-09-16T08:41:32.628Z,101258.28
2023-09-16T08:44:01.127Z,101256.56
2023-09-16T08:46:30.656Z,101246.06
2023-09-16T08:49:05.886Z,101247.72
2023-09-16T08:51:37.057Z,101231.28
2023-09-16T08:54:09.159Z,101231.09
2023-09-16T08:56:37.375Z,101235.53
2023-09-16T08:59:04.574Z,101232.56
2023-09-16T09:01:31.616Z,101243.75
2023-09-16T09:04:02.238Z,101240.56
2023-09-16T09:06:40.396Z,101238.69
2023-09-16T09:09:08.070Z,101227.50
2023-09-16T09:11:35.038Z,101238.06
2023-09-16T09:14:18.100Z,101238.47
2023-09-16T09:16:51.414Z,101240.56
2023-09-16T09:19:25.005Z,101243.97
2023-09-16T09:21:53.056Z,101248.38
2023-09-16T09:24:23.376Z,101242.69
2023-09-16T09:26:50.238Z,101258.91
2023-09-16T09:29:19.604Z,101260.75
2023-09-16T09:31:46.591Z,101263.78
2023-09-16T09:34:20.701Z,101262.75
2023-09-16T09:36:55.647Z,101261.97
2023-09-16T09:39:25.726Z,101266.69
2023-09-16T09:41:55.145Z,101268.47
2023-09-16T09:44:38.188Z,101265.44
2023-09-16T09:47:07.920Z,101261.09
2023-09-16T09:49:35.851Z,101257.53
2023-09-16T09:52:02.736Z,101248.16
2023-09-16T09:54:29.815Z,101245.69
2023-09-16T09:56:59.717Z,101241.22
2023-09-16T09:59:29.185Z,101235.38
2023-09-16T10:01:56.245Z,101236.06
2023-09-16T10:04:24.643Z,101230.41
2023-09-16T10:06:56.029Z,101223.56
2023-09-16T10:09:25.706Z,101220.63
2023-09-16T10:11:52.587Z,101225.41
2023-09-16T10:14:20.849Z,101230.88
2023-09-16T10:16:50.725Z,101215.72
2023-09-16T10:19:17.727Z,101215.84
2023-09-16T10:21:49.487Z,101217.59
2023-09-16T10:24:18.141Z,101213.00
2023-09-16T10:26:45.300Z,101225.91
2023-09-16T10:29:13.423Z,101225.44
2023-09-16T10:31:43.218Z,101227.34
2023-09-16T10:34:11.026Z,101229.88
2023-09-16T10:36:40.068Z,101237.00
2023-09-16T10:39:07.300Z,101230.72
2023-09-16T10:41:34.870Z,101236.41
2023-09-16T10:44:03.093Z,101232.91
2023-09-16T10:46:39.292Z,101227.53
2023-09-16T10:49:07.042Z,101229.19
2023-09-16T10:51:40.820Z,101219.44
2023-09-16T10:54:22.460Z,101213.09
2023-09-16T10:56:50.584Z,101200.97
2023-09-16T10:59:20.405Z,101209.63
2023-09-16T11:02:08.888Z,101212.66
2023-09-16T11:04:40.883Z,101210.94
2023-09-16T11:07:12.544Z,101201.41
2023-09-16T11:09:43.964Z,101194.97
2023-09-16T11:12:19.181Z,101193.03
2023-09-16T11:14:46.144Z,101180.50
2023-09-16T11:17:17.628Z,101197.84
2023-09-16T11:19:44.516Z,101204.56
2023-09-16T11:22:11.740Z,101196.56
2023-09-16T11:24:42.300Z,101199.38
2023-09-16T11:27:09.121Z,101183.81
2023-09-16T11:29:38.057Z,101186.34
2023-09-16T11:32:05.886Z,101188.72
2023-09-16T11:34:32.986Z,101183.81
2023-09-16T11:37:01.911Z,101183.56
2023-09-16T11:39:40.744Z,101175.53
2023-09-16T11:42:07.972Z,101155.22
2023-09-16T11:44:40.131Z,101168.25
2023-09-16T11:47:09.968Z,101161.34
2023-09-16T11:49:38.631Z,101166.59
2023-09-16T11:52:05.927Z,101164.78
2023-09-16T11:54:34.180Z,101146.41
2023-09-16T11:57:01.303Z,101155.56
2023-09-16T11:59:35.894Z,101148.03
2023-09-16T12:02:05.480Z,101154.28
2023-09-16T12:04:32.610Z,101141.19
2023-09-16T12:07:03.768Z,101131.81
2023-09-16T12:09:34.164Z,101122.88
2023-09-16T12:12:02.503Z,101139.28
2023-09-16T12:14:33.041Z,101141.78
2023-09-16T12:17:02.512Z,101135.31
2023-09-16T12:19:30.674Z,101143.19
2023-09-16T12:21:59.088Z,101138.38
2023-09-16T12:24:26.362Z,101126.81
2023-09-16T12:26:57.699Z,101119.41
2023-09-16T12:29:28.254Z,101124.19
2023-09-16T12:32:08.896Z,101126.72
2023-09-16T12:34:35.759Z,101106.53
2023-09-16T12:37:03.546Z,101106.34
2023-09-16T12:39:33.894Z,101111.97
2023-09-16T12:44:40.902Z,101105.03
2023-09-16T12:47:08.109Z,101107.44
2023-09-16T12:49:36.040Z,101095.34
2023-09-16T12:52:03.617Z,101093.78
2023-09-16T12:54:33.665Z,101088.84
2023-09-16T12:57:05.716Z,101091.16
2023-09-16T12:59:32.887Z,101081.50
2023-09-16T13:02:07.646Z,101075.13
2023-09-16T13:04:34.795Z,101070.94
2023-09-16T13:07:09.720Z,101063.44
2023-09-16T13:09:36.905Z,101078.31
2023-09-16T13:12:15.476Z,101067.22
2023-09-16T13:14:51.942Z,101059.78
2023-09-16T13:17:19.214Z,101075.66
2023-09-16T13:19:51.264Z,101075.09
2023-09-16T13:22:18.195Z,101072.88
2023-09-16T13:24:50.852Z,101080.13
2023-09-16T13:27:19.860Z,101078.47
2023-09-16T13:29:46.860Z,101065.72
2023-09-16T13:32:16.348Z,101071.88
2023-09-16T13:34:44.973Z,101075.84
2023-09-16T13:37:11.987Z,101077.81
2023-09-16T13:39:46.194Z,101071.16
2023-09-16T13:42:15.215Z,101070.34
2023-09-16T13:44:46.048Z,101066.69
2023-09-16T13:47:15.391Z,101067.44
2023-09-16T13:49:43.688Z,101065.75
2023-09-16T13:52:10.648Z,101073.44
2023-09-16T13:54:37.704Z,101070.63
2023-09-16T13:57:08.546Z,101054.72
2023-09-16T13:59:35.767Z,101065.69
2023-09-16T14:02:05.853Z,101062.38
2023-09-16T14:04:33.205Z,101060.16
2023-09-16T14:07:02.807Z,101060.44
2023-09-16T14:09:31.339Z,101056.41
2023-09-16T14:11:58.549Z,101059.53
2023-09-16T14:14:25.721Z,101073.34
2023-09-16T14:16:56.546Z,101071.63
2023-09-16T14:19:23.577Z,101067.94
2023-09-16T14:21:50.562Z,101067.81
2023-09-16T14:24:17.472Z,101064.09
2023-09-16T14:26:44.399Z,101060.34
2023-09-16T14:29:24.940Z,101045.44
2023-09-16T14:31:54.831Z,101049.66
2023-09-16T14:34:21.792Z,101049.97
2023-09-16T14:36:48.750Z,101043.84
2023-09-16T14:39:15.580Z,101049.13
2023-09-16T14:41:42.502Z,101042.75
2023-09-16T14:44:09.459Z,101041.06
2023-09-16T14:46:38.844Z,101045.84
2023-09-16T14:49:07.863Z,101046.41
2023-09-16T14:51:34.779Z,101050.34
2023-09-16T14:54:04.074Z,101044.56
2023-09-16T14:56:33.382Z,101049.44
2023-09-16T14:59:00.329Z,101044.84
2023-09-16T15:01:27.388Z,101036.00
2023-09-16T15:03:54.251Z,101049.22
2023-09-16T15:06:22.926Z,101039.81
2023-09-16T15:08:51.394Z,101049.38
2023-09-16T15:11:23.697Z,101039.00
2023-09-16T15:13:50.824Z,101036.25
2023-09-16T15:16:17.688Z,101038.44
2023-09-16T15:18:44.692Z,101043.09
2023-09-16T15:21:13.003Z,101049.38
2023-09-16T15:23:41.338Z,101046.22
2023-09-16T15:26:08.664Z,101043.41
2023-09-16T15:28:36.235Z,101050.53
2023-09-16T15:31:08.206Z,101046.81
2023-09-16T15:33:43.092Z,101035.00
2023-09-16T15:36:10.200Z,101040.78
2023-09-16T15:38:43.421Z,101037.31
2023-09-16T15:41:11.660Z,101031.13
2023-09-16T15:43:38.607Z,101032.91
2023-09-16T15:46:10.944Z,101033.34
2023-09-16T15:48:42.920Z,101030.72
2023-09-16T15:51:13.825Z,101025.19
2023-09-16T15:53:44.374Z,101030.16
2023-09-16T15:56:13.318Z,101036.69
2023-09-16T15:58:40.315Z,101033.97
2023-09-16T16:01:07.224Z,101032.38
2023-09-16T16:03:40.707Z,101039.50
2023-09-16T16:06:09.048Z,101046.63
2023-09-16T16:08:38.180Z,101033.34
2023-09-16T16:11:05.071Z,101047.00
2023-09-16T16:13:39.298Z,101033.03
2023-09-16T16:16:10.092Z,101051.94
2023-09-16T16:18:38.501Z,101052.09
2023-09-16T16:21:05.900Z,101046.19
2023-09-16T16:23:32.802Z,101051.97
2023-09-16T16:26:02.841Z,101047.97
2023-09-16T16:28:31.144Z,101056.13
2023-09-16T16:31:11.149Z,101058.00
2023-09-16T16:33:40.391Z,101057.66
2023-09-16T16:36:07.206Z,101057.94
2023-09-16T16:38:34.336Z,101071.84
2023-09-16T16:41:01.872Z,101073.06
2023-09-16T16:43:28.907Z,101076.50
2023-09-16T16:46:02.033Z,101076.84
2023-09-16T16:48:28.925Z,101081.50
2023-09-16T16:50:56.370Z,101090.53
2023-09-16T16:53:24.870Z,101087.72
2023-09-16T16:55:51.714Z,101088.28
2023-09-16T16:58:18.665Z,101086.47
2023-09-16T17:00:45.550Z,101081.66
2023-09-16T17:03:13.016Z,101083.22
2023-09-16T17:05:39.930Z,101079.47
2023-09-16T17:08:06.830Z,101084.38
2023-09-16T17:10:34.715Z,101091.19
2023-09-16T17:13:04.358Z,101086.22
2023-09-16T17:15:31.179Z,101091.34
2023-09-16T17:17:58.024Z,101096.09
2023-09-16T17:20:24.861Z,101095.63
2023-09-16T17:22:51.816Z,101091.03
2023-09-16T17:25:28.926Z,101095.28
2023-09-16T17:28:05.356Z,101092.03
2023-09-16T17:30:34.669Z,101093.78
2023-09-16T17:33:01.563Z,101096.59
2023-09-16T17:35:29.128Z,101088.81
2023-09-16T17:37:56.047Z,101085.06
2023-09-16T17:40:40.565Z,101078.19
2023-09-16T17:43:19.125Z,101082.47
2023-09-16T17:45:53.078Z,101082.28
2023-09-16T17:48:20.010Z,101074.53
2023-09-16T17:50:49.455Z,101076.03
2023-09-16T17:53:16.418Z,101091.09
2023-09-16T17:55:43.274Z,101091.38
2023-09-16T17:58:10.189Z,101093.97
2023-09-16T18:00:37.899Z,101099.91
2023-09-16T18:03:05.366Z,101110.72
2023-09-16T18:05:32.429Z,101125.97
2023-09-16T18:08:12.315Z,101130.44
2023-09-16T18:10:40.722Z,101121.34
2023-09-16T18:13:09.110Z,101128.53
2023-09-16T18:15:36.221Z,101128.34
2023-09-16T18:18:06.865Z,101109.31
2023-09-16T18:20:37.953Z,101140.69
2023-09-16T18:23:04.928Z,101151.25
2023-09-16T18:25:32.801Z,101139.88
2023-09-16T18:28:02.773Z,101154.88
2023-09-16T18:30:29.669Z,101162.06
2023-09-16T18:32:56.624Z,101164.63
2023-09-16T18:35:29.935Z,101165.25
2023-09-16T18:38:13.833Z,101165.88
2023-09-16T18:40:45.676Z,101166.53
2023-09-16T18:43:12.529Z,101172.19
2023-09-16T18:45:39.509Z,101176.22
2023-09-16T18:48:09.005Z,101168.25
2023-09-16T18:50:37.702Z,101179.59
2023-09-16T18:53:06.210Z,101176.22
2023-09-16T18:55:34.816Z,101176.06
2023-09-16T18:58:01.998Z,101175.66
2023-09-16T19:00:39.002Z,101169.13
2023-09-16T19:03:10.305Z,101173.78
2023-09-16T19:05:39.515Z,101174.25
2023-09-16T19:08:06.406Z,101168.53
2023-09-16T19:10:36.985Z,101152.59
2023-09-16T19:13:04.068Z,101173.81
2023-09-16T19:15:43.148Z,101171.53
2023-09-16T19:18:14.297Z,101162.06
2023-09-16T19:20:42.110Z,101169.03
2023-09-16T19:23:09.482Z,101167.78
2023-09-16T19:25:40.247Z,101161.06
2023-09-16T19:28:08.147Z,101165.47
2023-09-16T19:30:35.160Z,101162.97
2023-09-16T19:33:02.183Z,101165.91
2023-09-16T19:35:29.193Z,101160.44
2023-09-16T19:37:56.110Z,101155.34
2023-09-16T19:40:23.939Z,101148.22
2023-09-16T19:42:52.573Z,101146.50
2023-09-16T19:45:21.362Z,101142.28
2023-09-16T19:47:48.463Z,101144.81
2023-09-16T19:50:19.757Z,101130.91
2023-09-16T19:52:50.558Z,101137.44
2023-09-16T19:55:17.606Z,101130.28
2023-09-16T19:57:44.944Z,101129.03
2023-09-16T20:00:12.310Z,101133.03
2023-09-16T20:02:39.230Z,101129.47
2023-09-16T20:05:06.762Z,101121.03
2023-09-16T20:07:33.623Z,101118.75
2023-09-16T20:10:00.468Z,101128.00
2023-09-16T20:12:32.536Z,101121.25
2023-09-16T20:15:03.686Z,101133.31
2023-09-16T20:17:31.916Z,101138.78
2023-09-16T20:19:58.864Z,101137.72
2023-09-16T20:22:25.743Z,101149.75
2023-09-16T20:24:55.938Z,101155.22
2023-09-16T20:27:27.058Z,101145.53
2023-09-16T20:29:53.879Z,101165.75
2023-09-16T20:32:28.551Z,101150.81
2023-09-16T20:34:55.862Z,101166.81
2023-09-16T20:37:27.261Z,101163.00
2023-09-16T20:39:54.154Z,101174.81
2023-09-16T20:42:20.998Z,101167.63
2023-09-16T20:44:47.900Z,101172.06
2023-09-16T20:47:23.592Z,101169.97
2023-09-16T20:49:57.920Z,101178.59
2023-09-16T20:52:31.257Z,101174.38
2023-09-16T20:55:02.617Z,101165.09
2023-09-16T20:57:29.692Z,101166.75
2023-09-16T20:59:56.510Z,101162.75
2023-09-16T21:02:23.462Z,101154.31
2023-09-16T21:04:50.394Z,101156.84
2023-09-16T21:07:17.291Z,101156.44
2023-09-16T21:09:44.524Z,101153.06
2023-09-16T21:12:11.342Z,101151.19
2023-09-16T21:14:38.219Z,101158.16
2023-09-16T21:17:10.030Z,101157.97
2023-09-16T21:19:37.010Z,101168.06
2023-09-16T21:22:04.110Z,101156.03
2023-09-16T21:24:34.738Z,101141.72
2023-09-16T21:27:02.731Z,101150.56
2023-09-16T21:29:29.669Z,101156.66
2023-09-16T21:32:06.554Z,101160.47
2023-09-16T21:34:41.232Z,101139.84
2023-09-16T21:37:16.154Z,101158.38
2023-09-16T21:39:43.873Z,101151.84
2023-09-16T21:42:15.896Z,101144.47
2023-09-16T21:44:44.051Z,101149.94
2023-09-16T21:47:11.289Z,101156.72
2023-09-16T21:49:38.193Z,101159.22
2023-09-16T21:52:05.373Z,101151.47
2023-09-16T21:54:34.709Z,101154.84
2023-09-16T21:57:02.395Z,101158.41
2023-09-16T21:59:29.270Z,101157.56
2023-09-16T22:01:57.848Z,101155.03
2023-09-16T22:04:33.495Z,101154.84
2023-09-16T22:07:03.573Z,101147.44
2023-09-16T22:09:30.563Z,101161.34
2023-09-16T22:11:57.414Z,101160.91
2023-09-16T22:14:36.233Z,101146.59
2023-09-16T22:17:04.593Z,101155.63
2023-09-16T22:19:34.343Z,101144.03
2023-09-16T22:22:02.877Z,101154.38
2023-09-16T22:24:30.047Z,101150.59
2023-09-16T22:26:58.552Z,101150.59
2023-09-16T22:29:28.118Z,101147.22
2023-09-16T22:31:55.068Z,101148.66
2023-09-16T22:34:29.385Z,101151.63
2023-09-16T22:36:56.291Z,101165.31
2023-09-16T22:39:24.402Z,101161.13
2023-09-16T22:41:51.263Z,101175.00
2023-09-16T22:44:34.311Z,101180.00
2023-09-16T22:47:03.645Z,101176.22
2023-09-16T22:49:31.537Z,101178.94
2023-09-16T22:51:58.852Z,101176.75
2023-09-16T22:54:25.885Z,101180.09
2023-09-16T22:56:53.777Z,101181.94
2023-09-16T22:59:23.768Z,101177.28
2023-09-16T23:01:51.147Z,101182.13
2023-09-16T23:04:20.392Z,101183.97
2023-09-16T23:06:48.605Z,101187.94
2023-09-16T23:09:18.979Z,101188.31
2023-09-16T23:11:45.865Z,101187.03
2023-09-16T23:14:22.421Z,101197.34
2023-09-16T23:16:53.328Z,101193.38
2023-09-16T23:19:20.480Z,101198.63
2023-09-16T23:21:48.617Z,101203.50
2023-09-16T23:24:15.518Z,101195.06
2023-09-16T23:26:44.030Z,101201.81
2023-09-16T23:29:11.528Z,101199.34
2023-09-16T23:31:46.025Z,101202.28
2023-09-16T23:34:21.033Z,101201.50
2023-09-16T23:36:53.220Z,101205.75
2023-09-16T23:39:30.836Z,101204.47
2023-09-16T23:42:05.142Z,101185.56
2023-09-16T23:44:35.276Z,101200.38
2023-09-16T23:47:07.337Z,101183.91
2023-09-16T23:49:35.962Z,101202.72
2023-09-16T23:52:13.943Z,101199.56
2023-09-16T23:54:45.630Z,101205.91
2023-09-16T23:57:17.492Z,101182.31
2023-09-16T23:59:44.384Z,101198.34
